Time;durP1;ratioP1;P1;durP2;ratioP2;P2;SDS_P1;SDS_P2;PMS_P1;PMS_P2;Temp;Humidity;BMP_temperature;BMP_pressure;BME280_temperature;BME280_humidity;BME280_pressure;Samples;Min_cycle;Max_cycle;Signal;HPM_P1;HPM_P2
2023/06/14 00:00:59;;;;;;;5.65;2.90;;;;;;;;;;5015584;28;20508;-78
2023/06/14 00:03:25;;;;;;;3.90;2.90;;;;;;;;;;5016547;28;20048;-79
2023/06/14 00:05:52;;;;;;;8.35;3.05;;;;;;;;;;5015625;28;20503;-79
2023/06/14 00:08:18;;;;;;;5.20;2.65;;;;;;;;;;5015770;28;20049;-79
2023/06/14 00:10:45;;;;;;;6.32;3.00;;;;;;;;;;5015586;28;20127;-79
2023/06/14 00:13:11;;;;;;;4.82;2.80;;;;;;;;;;5014441;28;20046;-78
2023/06/14 00:15:37;;;;;;;7.47;3.03;;;;;;;;;;5015798;28;20472;-79
2023/06/14 00:18:04;;;;;;;4.10;2.80;;;;;;;;;;5014245;28;20054;-79
2023/06/14 00:20:32;;;;;;;7.45;3.15;;;;;;;;;;5014026;28;20042;-79
2023/06/14 00:22:58;;;;;;;4.60;2.30;;;;;;;;;;5015500;28;20049;-79
2023/06/14 00:25:28;;;;;;;5.38;2.90;;;;;;;;;;5007390;28;20038;-79
2023/06/14 00:27:55;;;;;;;3.80;2.75;;;;;;;;;;5003715;28;20050;-79
2023/06/14 00:30:21;;;;;;;4.88;2.42;;;;;;;;;;5015566;28;20046;-79
2023/06/14 00:32:47;;;;;;;3.40;2.72;;;;;;;;;;5014394;28;20507;-79
2023/06/14 00:35:14;;;;;;;4.40;2.72;;;;;;;;;;5014883;28;20042;-79
2023/06/14 00:37:40;;;;;;;3.75;2.50;;;;;;;;;;5014710;28;20074;-79
2023/06/14 00:40:06;;;;;;;5.10;2.40;;;;;;;;;;5015260;28;20044;-79
2023/06/14 00:42:32;;;;;;;4.85;2.50;;;;;;;;;;5014955;28;20133;-79
2023/06/14 00:44:59;;;;;;;5.55;2.88;;;;;;;;;;5015211;28;20052;-79
2023/06/14 00:47:25;;;;;;;4.22;2.30;;;;;;;;;;5015152;28;20053;-79
2023/06/14 00:49:51;;;;;;;6.38;2.58;;;;;;;;;;5014943;28;20053;-79
2023/06/14 00:52:18;;;;;;;4.65;2.50;;;;;;;;;;5014687;28;20038;-79
2023/06/14 00:54:44;;;;;;;2.50;2.00;;;;;;;;;;5014633;28;20496;-79
2023/06/14 00:57:11;;;;;;;5.75;2.40;;;;;;;;;;5013576;28;20046;-79
2023/06/14 00:59:41;;;;;;;4.53;2.38;;;;;;;;;;5015021;28;20042;-78
2023/06/14 01:02:07;;;;;;;5.22;2.78;;;;;;;;;;5014631;28;20125;-79
2023/06/14 01:04:33;;;;;;;4.80;2.40;;;;;;;;;;5014498;28;20054;-79
2023/06/14 01:07:09;;;;;;;3.90;2.42;;;;;;;;;;5014028;28;20042;-78
2023/06/14 01:09:35;;;;;;;5.47;2.60;;;;;;;;;;4995393;28;20046;-79
2023/06/14 01:12:22;;;;;;;3.05;2.40;;;;;;;;;;5009573;28;20141;-78
2023/06/14 01:14:48;;;;;;;;;;;;;;;;;;4984236;28;20504;-79
2023/06/14 01:17:16;;;;;;;3.97;2.20;;;;;;;;;;5014131;28;19975;-78
2023/06/14 01:19:44;;;;;;;2.25;2.00;;;;;;;;;;5014602;28;20049;-78
2023/06/14 01:22:10;;;;;;;4.88;2.30;;;;;;;;;;5014041;28;20400;-79
2023/06/14 01:24:39;;;;;;;3.30;2.50;;;;;;;;;;5014189;28;20054;-79
2023/06/14 01:27:07;;;;;;;3.50;2.50;;;;;;;;;;5013986;28;20519;-78
2023/06/14 01:29:36;;;;;;;3.20;2.33;;;;;;;;;;5014717;28;20472;-79
2023/06/14 01:32:02;;;;;;;3.65;2.40;;;;;;;;;;5014484;28;20049;-79
2023/06/14 01:34:28;;;;;;;3.92;2.50;;;;;;;;;;5014392;28;20038;-78
2023/06/14 01:36:54;;;;;;;3.15;2.25;;;;;;;;;;5013788;28;20038;-79
2023/06/14 01:39:21;;;;;;;4.13;2.70;;;;;;;;;;5014640;28;20053;-78
2023/06/14 01:41:48;;;;;;;4.05;2.63;;;;;;;;;;5014573;28;20053;-79
2023/06/14 01:44:15;;;;;;;4.53;2.72;;;;;;;;;;5013448;28;20411;-79
2023/06/14 01:46:42;;;;;;;4.07;2.58;;;;;;;;;;5013735;28;20447;-79
2023/06/14 01:49:08;;;;;;;3.83;2.47;;;;;;;;;;5013614;28;20121;-79
2023/06/14 01:51:35;;;;;;;4.10;2.75;;;;;;;;;;4998690;28;20050;-79
2023/06/14 01:54:01;;;;;;;4.00;2.90;;;;;;;;;;5013615;28;20050;-79
2023/06/14 01:56:27;;;;;;;4.15;2.50;;;;;;;;;;5011978;28;20140;-79
2023/06/14 01:58:54;;;;;;;4.10;2.78;;;;;;;;;;5013553;28;20046;-78
2023/06/14 02:01:21;;;;;;;3.80;2.70;;;;;;;;;;5014027;28;20046;-79
2023/06/14 02:03:49;;;;;;;4.63;2.70;;;;;;;;;;5013498;28;20053;-79
2023/06/14 02:06:15;;;;;;;3.63;2.75;;;;;;;;;;5006600;28;20146;-79
2023/06/14 02:08:42;;;;;;;4.28;2.88;;;;;;;;;;5011611;28;20527;-79
2023/06/14 02:11:08;;;;;;;3.50;2.65;;;;;;;;;;5013288;28;20053;-78
2023/06/14 02:13:34;;;;;;;4.93;3.00;;;;;;;;;;5013556;28;20038;-79
2023/06/14 02:16:01;;;;;;;3.75;2.97;;;;;;;;;;5013487;28;20128;-79
2023/06/14 02:18:27;;;;;;;5.22;2.90;;;;;;;;;;5013689;28;20495;-79
2023/06/14 02:20:53;;;;;;;4.25;2.90;;;;;;;;;;5012871;28;20377;-79
2023/06/14 02:23:20;;;;;;;3.35;2.75;;;;;;;;;;5013621;28;20056;-79
2023/06/14 02:25:46;;;;;;;4.25;2.80;;;;;;;;;;5013372;28;20053;-79
2023/06/14 02:28:12;;;;;;;4.38;2.80;;;;;;;;;;5013338;28;20117;-79
2023/06/14 02:30:39;;;;;;;6.18;2.95;;;;;;;;;;5016454;28;20189;-79
2023/06/14 02:33:05;;;;;;;4.05;2.70;;;;;;;;;;5018059;28;20125;-79
2023/06/14 02:35:31;;;;;;;5.57;3.45;;;;;;;;;;5022843;28;20041;-79
2023/06/14 02:37:57;;;;;;;4.65;3.38;;;;;;;;;;5022758;28;20049;-79
2023/06/14 02:40:23;;;;;;;4.78;2.92;;;;;;;;;;5013531;28;20054;-78
2023/06/14 02:42:49;;;;;;;3.33;2.63;;;;;;;;;;5012851;28;20487;-79
2023/06/14 02:45:16;;;;;;;5.45;3.03;;;;;;;;;;5013183;28;20060;-79
2023/06/14 02:47:42;;;;;;;3.80;3.15;;;;;;;;;;5013379;28;20061;-79
2023/06/14 02:50:08;;;;;;;5.45;3.22;;;;;;;;;;5011279;28;20050;-79
2023/06/14 02:52:35;;;;;;;3.63;2.85;;;;;;;;;;5012866;28;20046;-79
2023/06/14 02:55:01;;;;;;;3.88;3.15;;;;;;;;;;5012949;28;20480;-79
2023/06/14 02:57:27;;;;;;;5.43;3.33;;;;;;;;;;5012745;28;20447;-79
2023/06/14 02:59:53;;;;;;;4.85;3.15;;;;;;;;;;5012507;28;20510;-79
2023/06/14 03:02:19;;;;;;;5.18;3.20;;;;;;;;;;5013087;28;20125;-79
2023/06/14 03:04:46;;;;;;;4.80;3.47;;;;;;;;;;5012506;28;20408;-78
2023/06/14 03:07:12;;;;;;;6.78;3.20;;;;;;;;;;5011982;28;20128;-79
2023/06/14 03:09:39;;;;;;;5.18;3.42;;;;;;;;;;5017059;28;20130;-79
2023/06/14 03:12:06;;;;;;;5.13;3.40;;;;;;;;;;5016459;28;20396;-79
2023/06/14 03:14:33;;;;;;;4.95;3.28;;;;;;;;;;5016331;28;20054;-78
2023/06/14 03:17:00;;;;;;;4.70;3.53;;;;;;;;;;5016161;28;20374;-78
2023/06/14 03:19:26;;;;;;;5.07;3.65;;;;;;;;;;5011872;28;20412;-79
2023/06/14 03:21:53;;;;;;;5.63;3.47;;;;;;;;;;5014069;28;20042;-79
2023/06/14 03:24:19;;;;;;;7.78;3.42;;;;;;;;;;5016133;28;20129;-79
2023/06/14 03:26:46;;;;;;;5.25;3.60;;;;;;;;;;5008255;28;20042;-79
2023/06/14 03:29:12;;;;;;;4.82;3.50;;;;;;;;;;5000403;28;20045;-79
2023/06/14 03:31:42;;;;;;;5.53;3.47;;;;;;;;;;5016008;28;20555;-78
2023/06/14 03:34:08;;;;;;;4.50;3.70;;;;;;;;;;5016346;28;20046;-78
2023/06/14 03:36:34;;;;;;;5.80;3.38;;;;;;;;;;5015905;28;20064;-78
2023/06/14 03:39:00;;;;;;;7.97;3.80;;;;;;;;;;5015891;28;20053;-79
2023/06/14 03:41:27;;;;;;;4.95;3.63;;;;;;;;;;5015723;28;20042;-79
2023/06/14 03:43:53;;;;;;;6.28;3.55;;;;;;;;;;5015710;28;20054;-79
2023/06/14 03:46:19;;;;;;;4.82;3.47;;;;;;;;;;5014322;28;20058;-79
2023/06/14 03:48:46;;;;;;;6.32;3.90;;;;;;;;;;5016839;28;20042;-79
2023/06/14 03:51:12;;;;;;;6.82;3.78;;;;;;;;;;5015989;28;20066;-79
2023/06/14 03:53:38;;;;;;;5.15;3.45;;;;;;;;;;5016183;28;20139;-78
2023/06/14 03:56:04;;;;;;;4.57;3.42;;;;;;;;;;5016099;28;20042;-79
2023/06/14 03:58:31;;;;;;;4.90;3.30;;;;;;;;;;5013427;28;20052;-79
2023/06/14 04:00:57;;;;;;;5.07;3.63;;;;;;;;;;4996163;28;20050;-78
2023/06/14 04:03:24;;;;;;;5.50;3.33;;;;;;;;;;4996285;28;20563;-79
2023/06/14 04:05:50;;;;;;;8.05;3.85;;;;;;;;;;4995902;28;20050;-79
2023/06/14 04:08:19;;;;;;;5.80;3.38;;;;;;;;;;5012670;28;20056;-79
2023/06/14 04:10:45;;;;;;;5.43;3.58;;;;;;;;;;5015260;28;20050;-79
2023/06/14 04:13:13;;;;;;;5.15;3.38;;;;;;;;;;5015049;28;20050;-79
2023/06/14 04:15:42;;;;;;;6.28;3.60;;;;;;;;;;5015036;28;20056;-79
2023/06/14 04:18:08;;;;;;;6.85;3.63;;;;;;;;;;5012098;28;20129;-79
2023/06/14 04:20:34;;;;;;;6.50;4.18;;;;;;;;;;5015555;28;20042;-79
2023/06/14 04:23:12;;;;;;;4.60;3.45;;;;;;;;;;5015703;28;20045;-79
2023/06/14 04:25:40;;;;;;;5.05;3.85;;;;;;;;;;5015209;28;20049;-78
2023/06/14 04:28:08;;;;;;;5.65;3.58;;;;;;;;;;5014738;28;20074;-79
2023/06/14 04:30:35;;;;;;;5.75;3.30;;;;;;;;;;5014969;28;20177;-78
2023/06/14 04:33:05;;;;;;;5.85;3.28;;;;;;;;;;5013661;28;20065;-79
2023/06/14 04:35:32;;;;;;;5.10;3.50;;;;;;;;;;5014744;28;20400;-79
2023/06/14 04:37:58;;;;;;;6.78;3.72;;;;;;;;;;5014351;28;20493;-79
2023/06/14 04:40:25;;;;;;;5.05;3.78;;;;;;;;;;5014531;28;20480;-79
2023/06/14 04:42:51;;;;;;;5.07;3.55;;;;;;;;;;5013297;28;20054;-79
2023/06/14 04:45:17;;;;;;;5.30;3.70;;;;;;;;;;5015021;28;20081;-78
2023/06/14 04:47:43;;;;;;;7.50;3.53;;;;;;;;;;5014768;28;20547;-79
2023/06/14 04:50:13;;;;;;;6.45;3.35;;;;;;;;;;5014679;28;20052;-79
2023/06/14 04:52:39;;;;;;;6.25;3.72;;;;;;;;;;5014647;28;20060;-79
2023/06/14 04:55:06;;;;;;;9.23;3.80;;;;;;;;;;5014596;28;20053;-79
2023/06/14 04:57:32;;;;;;;5.07;3.45;;;;;;;;;;5014817;28;20049;-79
2023/06/14 05:00:00;;;;;;;6.18;3.80;;;;;;;;;;5015731;28;20046;-79
2023/06/14 05:02:27;;;;;;;7.72;3.70;;;;;;;;;;5014347;28;20060;-79
2023/06/14 05:04:54;;;;;;;4.18;3.15;;;;;;;;;;5015059;28;20480;-79
2023/06/14 05:07:23;;;;;;;5.35;3.50;;;;;;;;;;5014619;28;20050;-79
2023/06/14 05:09:49;;;;;;;5.75;3.72;;;;;;;;;;5014454;28;20110;-79
2023/06/14 05:12:18;;;;;;;6.75;3.72;;;;;;;;;;5014165;28;20042;-79
2023/06/14 05:14:44;;;;;;;10.13;4.85;;;;;;;;;;5014721;28;20057;-79
2023/06/14 05:17:10;;;;;;;5.30;3.70;;;;;;;;;;5014024;28;20404;-79
2023/06/14 05:19:36;;;;;;;5.50;3.47;;;;;;;;;;5014288;28;20508;-79
2023/06/14 05:22:02;;;;;;;5.60;3.80;;;;;;;;;;5014588;28;20107;-79
2023/06/14 05:24:32;;;;;;;6.05;3.55;;;;;;;;;;5014455;28;20045;-79
2023/06/14 05:26:58;;;;;;;7.22;3.47;;;;;;;;;;5014465;28;20050;-79
2023/06/14 05:29:24;;;;;;;5.15;3.67;;;;;;;;;;5012772;28;20046;-79
2023/06/14 05:31:50;;;;;;;12.68;4.32;;;;;;;;;;5013040;28;20042;-79
2023/06/14 05:34:17;;;;;;;6.45;3.85;;;;;;;;;;5013823;28;20057;-79
2023/06/14 05:36:43;;;;;;;7.07;3.70;;;;;;;;;;5013901;28;20046;-79
2023/06/14 05:39:09;;;;;;;4.30;3.35;;;;;;;;;;5013947;28;20579;-79
2023/06/14 05:41:35;;;;;;;4.93;3.38;;;;;;;;;;5011772;28;20081;-79
2023/06/14 05:44:01;;;;;;;5.53;3.78;;;;;;;;;;5013635;28;20054;-79
2023/06/14 05:46:28;;;;;;;4.93;3.28;;;;;;;;;;5009981;28;20508;-79
2023/06/14 05:48:55;;;;;;;5.55;3.58;;;;;;;;;;5016555;28;20046;-79
2023/06/14 05:51:21;;;;;;;4.97;3.40;;;;;;;;;;5015862;28;20042;-79
2023/06/14 05:53:48;;;;;;;5.55;3.20;;;;;;;;;;5014697;28;20531;-79
2023/06/14 05:56:14;;;;;;;7.18;3.67;;;;;;;;;;5016135;28;20042;-78
2023/06/14 05:58:41;;;;;;;5.95;3.40;;;;;;;;;;5013896;28;20434;-79
2023/06/14 06:01:07;;;;;;;5.10;3.40;;;;;;;;;;5012456;28;20057;-79
2023/06/14 06:03:33;;;;;;;4.40;3.30;;;;;;;;;;5013579;28;20056;-79
2023/06/14 06:06:00;;;;;;;7.60;4.22;;;;;;;;;;5013713;28;20177;-79
2023/06/14 06:08:27;;;;;;;6.15;3.55;;;;;;;;;;5012495;28;20046;-79
2023/06/14 06:10:53;;;;;;;5.63;3.83;;;;;;;;;;5005797;28;20137;-81
2023/06/14 06:13:19;;;;;;;4.38;3.38;;;;;;;;;;5008111;28;20048;-79
2023/06/14 06:15:45;;;;;;;6.38;3.80;;;;;;;;;;5026812;28;20070;-80
2023/06/14 06:18:11;;;;;;;5.22;3.50;;;;;;;;;;5027424;28;20045;-80
2023/06/14 06:20:37;;;;;;;6.93;3.72;;;;;;;;;;5023469;28;20061;-79
2023/06/14 06:23:03;;;;;;;8.23;3.90;;;;;;;;;;5023460;28;20042;-79
2023/06/14 06:25:31;;;;;;;7.22;4.07;;;;;;;;;;5021966;28;20189;-80
2023/06/14 06:27:58;;;;;;;5.78;4.30;;;;;;;;;;5020579;28;20409;-79
2023/06/14 06:30:24;;;;;;;4.97;3.70;;;;;;;;;;5019367;28;20052;-79
2023/06/14 06:32:50;;;;;;;6.35;3.85;;;;;;;;;;5022199;28;20042;-79
2023/06/14 06:35:17;;;;;;;4.28;3.88;;;;;;;;;;5020767;28;20050;-79
2023/06/14 06:37:43;;;;;;;5.38;4.15;;;;;;;;;;5021692;28;20120;-79
2023/06/14 06:40:10;;;;;;;6.43;4.05;;;;;;;;;;5023776;28;20037;-79
2023/06/14 06:42:36;;;;;;;5.82;3.63;;;;;;;;;;5027447;28;20050;-79
2023/06/14 06:45:02;;;;;;;5.15;3.42;;;;;;;;;;5033013;28;20046;-79
2023/06/14 06:47:28;;;;;;;6.82;3.80;;;;;;;;;;5031171;28;20137;-79
2023/06/14 06:49:54;;;;;;;8.32;3.75;;;;;;;;;;5014654;28;20041;-80
2023/06/14 06:52:20;;;;;;;5.93;3.88;;;;;;;;;;5026484;28;20050;-79
2023/06/14 06:54:46;;;;;;;6.97;3.70;;;;;;;;;;5029277;28;20041;-80
2023/06/14 06:57:12;;;;;;;5.40;3.72;;;;;;;;;;5030979;28;20050;-80
2023/06/14 06:59:38;;;;;;;4.32;3.65;;;;;;;;;;5028446;28;20057;-79
2023/06/14 07:02:05;;;;;;;6.30;3.75;;;;;;;;;;5027416;28;20408;-80
2023/06/14 07:04:31;;;;;;;7.07;4.10;;;;;;;;;;5028677;28;20056;-81
2023/06/14 07:06:57;;;;;;;4.25;3.50;;;;;;;;;;5032735;28;20038;-81
2023/06/14 07:09:24;;;;;;;6.35;3.92;;;;;;;;;;5030320;28;20053;-80
2023/06/14 07:11:50;;;;;;;6.90;3.80;;;;;;;;;;5026433;28;20046;-79
2023/06/14 07:14:16;;;;;;;4.65;3.47;;;;;;;;;;5021174;28;20049;-85
2023/06/14 07:16:42;;;;;;;5.30;3.67;;;;;;;;;;5008208;28;20046;-80
2023/06/14 07:19:10;;;;;;;4.47;3.50;;;;;;;;;;5029715;28;20419;-79
2023/06/14 07:21:38;;;;;;;4.40;3.30;;;;;;;;;;5028185;28;20125;-79
2023/06/14 07:24:06;;;;;;;5.22;3.60;;;;;;;;;;5030500;28;20046;-79
2023/06/14 07:26:32;;;;;;;4.45;3.60;;;;;;;;;;5029186;28;20053;-79
2023/06/14 07:28:58;;;;;;;4.90;3.38;;;;;;;;;;5022963;28;20431;-80
2023/06/14 07:31:24;;;;;;;5.32;3.47;;;;;;;;;;5021201;28;20493;-81
2023/06/14 07:33:50;;;;;;;5.70;3.40;;;;;;;;;;5026436;28;20425;-79
2023/06/14 07:36:17;;;;;;;5.68;3.63;;;;;;;;;;5016053;28;20553;-80
2023/06/14 07:38:43;;;;;;;5.28;3.50;;;;;;;;;;5025917;28;20428;-82
2023/06/14 07:41:09;;;;;;;7.80;3.70;;;;;;;;;;5025204;28;20042;-84
2023/06/14 07:43:37;;;;;;;5.53;3.40;;;;;;;;;;5022146;28;20076;-82
2023/06/14 07:46:03;;;;;;;6.25;3.38;;;;;;;;;;5024111;28;20056;-83
2023/06/14 07:48:29;;;;;;;4.53;3.40;;;;;;;;;;5024939;28;20042;-80
2023/06/14 07:50:55;;;;;;;4.72;3.40;;;;;;;;;;5013810;28;20068;-79
2023/06/14 07:53:21;;;;;;;6.28;3.58;;;;;;;;;;5021536;28;20054;-79
2023/06/14 07:55:48;;;;;;;3.80;3.45;;;;;;;;;;5025462;28;20050;-80
2023/06/14 07:58:15;;;;;;;5.35;3.22;;;;;;;;;;5025923;28;20053;-80
2023/06/14 08:00:41;;;;;;;4.90;3.30;;;;;;;;;;5023374;28;20049;-79
2023/06/14 08:03:07;;;;;;;5.53;3.20;;;;;;;;;;5023707;28;20117;-80
2023/06/14 08:05:34;;;;;;;5.88;3.30;;;;;;;;;;5023541;28;20419;-80
2023/06/14 08:08:00;;;;;;;4.95;3.53;;;;;;;;;;5024717;28;20176;-79
2023/06/14 08:10:26;;;;;;;7.88;3.53;;;;;;;;;;5025602;28;20042;-80
2023/06/14 08:12:52;;;;;;;5.40;3.20;;;;;;;;;;5024542;28;20038;-79
2023/06/14 08:15:19;;;;;;;6.28;3.83;;;;;;;;;;5024592;28;20495;-79
2023/06/14 08:17:45;;;;;;;4.63;3.10;;;;;;;;;;5024082;28;20101;-79
2023/06/14 08:20:11;;;;;;;5.25;3.65;;;;;;;;;;5024636;28;20084;-80
2023/06/14 08:22:37;;;;;;;4.25;3.38;;;;;;;;;;5025092;28;20038;-81
2023/06/14 08:25:04;;;;;;;7.40;3.40;;;;;;;;;;5006041;28;20551;-85
2023/06/14 08:27:30;;;;;;;5.35;3.40;;;;;;;;;;5020840;28;20132;-81
2023/06/14 08:29:56;;;;;;;5.50;3.13;;;;;;;;;;5023920;28;20041;-80
2023/06/14 08:32:22;;;;;;;5.32;3.17;;;;;;;;;;5033946;28;20093;-80
2023/06/14 08:34:48;;;;;;;4.72;3.20;;;;;;;;;;5024069;28;20445;-80
2023/06/14 08:37:14;;;;;;;6.75;3.10;;;;;;;;;;5023815;28;20149;-81
2023/06/14 08:39:40;;;;;;;4.80;3.00;;;;;;;;;;5024205;28;20046;-81
2023/06/14 08:42:07;;;;;;;4.70;3.00;;;;;;;;;;5024112;28;20105;-81
2023/06/14 08:44:34;;;;;;;4.78;2.92;;;;;;;;;;5024991;28;20050;-80
2023/06/14 08:47:00;;;;;;;3.83;3.15;;;;;;;;;;5041343;28;20041;-80
2023/06/14 08:49:27;;;;;;;8.38;3.25;;;;;;;;;;5034793;28;20065;-79
2023/06/14 08:51:57;;;;;;;4.88;2.97;;;;;;;;;;5027617;28;20042;-79
2023/06/14 08:54:24;;;;;;;6.80;3.00;;;;;;;;;;5028083;28;20037;-79
2023/06/14 08:56:52;;;;;;;5.07;2.90;;;;;;;;;;5027753;28;20042;-79
2023/06/14 08:59:18;;;;;;;4.38;3.10;;;;;;;;;;5027874;28;20060;-79
2023/06/14 09:01:45;;;;;;;3.88;2.90;;;;;;;;;;5044066;28;20077;-80
2023/06/14 09:04:11;;;;;;;5.65;3.13;;;;;;;;;;5035243;28;20085;-79
2023/06/14 09:06:37;;;;;;;8.30;3.60;;;;;;;;;;5025821;28;20072;-79
2023/06/14 09:09:04;;;;;;;4.07;3.00;;;;;;;;;;5026802;28;20042;-79
2023/06/14 09:11:30;;;;;;;4.72;2.90;;;;;;;;;;5024503;28;20107;-79
2023/06/14 09:13:57;;;;;;;5.75;2.78;;;;;;;;;;5025135;28;20041;-79
2023/06/14 09:16:23;;;;;;;8.75;3.15;;;;;;;;;;5034150;28;20046;-79
2023/06/14 09:18:49;;;;;;;7.22;3.15;;;;;;;;;;5026167;28;20046;-79
2023/06/14 09:21:16;;;;;;;5.20;2.83;;;;;;;;;;5025734;28;20109;-79
2023/06/14 09:23:43;;;;;;;5.30;2.65;;;;;;;;;;5025759;28;20053;-80
2023/06/14 09:26:12;;;;;;;3.50;2.60;;;;;;;;;;5005424;28;20097;-79
2023/06/14 09:28:42;;;;;;;4.93;2.92;;;;;;;;;;5006228;28;20050;-79
2023/06/14 09:31:09;;;;;;;3.75;2.78;;;;;;;;;;5019497;28;20061;-80
2023/06/14 09:33:35;;;;;;;4.50;2.80;;;;;;;;;;5019879;28;20061;-82
2023/06/14 09:36:01;;;;;;;4.55;2.70;;;;;;;;;;5022708;28;20495;-80
2023/06/14 09:38:27;;;;;;;5.22;2.60;;;;;;;;;;5023179;28;20041;-80
2023/06/14 09:40:56;;;;;;;5.28;2.70;;;;;;;;;;5022400;28;20053;-80
2023/06/14 09:43:23;;;;;;;4.88;2.65;;;;;;;;;;5021458;28;20050;-80
2023/06/14 09:45:50;;;;;;;4.90;2.67;;;;;;;;;;5020636;28;20049;-80
2023/06/14 09:48:19;;;;;;;11.27;3.05;;;;;;;;;;5021796;28;20105;-79
2023/06/14 09:50:50;;;;;;;6.50;2.85;;;;;;;;;;5021870;28;20403;-79
2023/06/14 09:53:16;;;;;;;5.15;2.33;;;;;;;;;;5022325;28;20117;-80
2023/06/14 09:55:42;;;;;;;4.82;2.35;;;;;;;;;;5019918;28;20050;-79
2023/06/14 09:58:09;;;;;;;4.82;2.97;;;;;;;;;;5021636;28;20112;-81
2023/06/14 10:00:36;;;;;;;6.03;2.75;;;;;;;;;;5027150;28;20053;-81
2023/06/14 10:03:09;;;;;;;3.80;2.70;;;;;;;;;;5021058;28;20084;-81
2023/06/14 10:05:36;;;;;;;3.88;2.40;;;;;;;;;;5023893;28;20108;-80
2023/06/14 10:08:08;;;;;;;5.40;2.67;;;;;;;;;;5014668;28;20084;-80
2023/06/14 10:10:34;;;;;;;6.97;2.72;;;;;;;;;;5021290;28;20053;-79
2023/06/14 10:13:01;;;;;;;3.40;2.60;;;;;;;;;;5007009;28;20066;-80
2023/06/14 10:15:43;;;;;;;4.47;2.65;;;;;;;;;;5023903;28;20073;-80
2023/06/14 10:18:25;;;;;;;4.85;3.30;;;;;;;;;;5024076;28;20048;-79
2023/06/14 10:20:50;;;;;;;5.63;2.92;;;;;;;;;;5022680;28;20053;-79
2023/06/14 10:23:19;;;;;;;3.75;2.90;;;;;;;;;;5022333;28;20416;-79
2023/06/14 10:25:45;;;;;;;7.43;3.13;;;;;;;;;;5022245;28;20117;-80
2023/06/14 10:28:19;;;;;;;6.35;2.97;;;;;;;;;;5022342;28;20049;-80
2023/06/14 10:31:06;;;;;;;3.47;2.60;;;;;;;;;;5020848;28;20046;-79
2023/06/14 10:33:36;;;;;;;5.35;2.83;;;;;;;;;;5018017;28;20495;-78
2023/06/14 10:36:08;;;;;;;5.93;2.70;;;;;;;;;;5018857;28;20472;-79
2023/06/14 10:38:36;;;;;;;4.10;2.80;;;;;;;;;;5010573;28;20168;-79
2023/06/14 10:41:04;;;;;;;5.55;3.03;;;;;;;;;;5020436;28;20045;-80
2023/06/14 10:43:30;;;;;;;7.07;3.00;;;;;;;;;;5022235;28;20505;-81
2023/06/14 10:46:13;;;;;;;5.63;2.80;;;;;;;;;;5019448;28;20053;-81
2023/06/14 10:48:44;;;;;;;4.13;2.67;;;;;;;;;;5023437;28;20050;-84
2023/06/14 10:51:20;;;;;;;3.95;2.80;;;;;;;;;;5020103;28;20057;-81
2023/06/14 10:53:47;;;;;;;4.03;3.00;;;;;;;;;;5023379;28;20519;-80
2023/06/14 10:56:31;;;;;;;4.30;2.70;;;;;;;;;;5023621;28;20064;-79
2023/06/14 10:58:58;;;;;;;7.78;2.80;;;;;;;;;;5024483;28;20042;-80
2023/06/14 11:01:36;;;;;;;3.28;2.60;;;;;;;;;;5024220;28;20049;-80
2023/06/14 11:04:10;;;;;;;3.72;2.75;;;;;;;;;;5024197;28;20042;-80
2023/06/14 11:06:45;;;;;;;4.85;2.70;;;;;;;;;;5021370;28;20046;-80
2023/06/14 11:09:12;;;;;;;;;;;;;;;;;;5022952;28;20102;-80
2023/06/14 11:11:38;;;;;;;;;;;;;;;;;;5017533;28;19981;-81
2023/06/14 11:14:05;;;;;;;5.40;2.97;;;;;;;;;;5006474;28;19932;-80
2023/06/14 11:16:33;;;;;;;4.65;2.70;;;;;;;;;;5024381;28;20504;-80
2023/06/14 11:19:01;;;;;;;4.60;2.92;;;;;;;;;;5025060;28;20085;-80
2023/06/14 11:21:31;;;;;;;4.70;3.15;;;;;;;;;;5025481;28;20052;-80
2023/06/14 11:23:57;;;;;;;5.20;3.33;;;;;;;;;;5022825;28;20111;-80
2023/06/14 11:26:30;;;;;;;5.65;3.30;;;;;;;;;;5023909;28;20506;-80
2023/06/14 11:28:57;;;;;;;5.50;3.17;;;;;;;;;;5028487;28;20042;-81
2023/06/14 11:31:23;;;;;;;4.82;3.08;;;;;;;;;;5030606;28;20041;-81
2023/06/14 11:33:50;;;;;;;4.75;2.97;;;;;;;;;;5027048;28;20131;-80
2023/06/14 11:36:16;;;;;;;6.57;3.28;;;;;;;;;;5031645;28;20049;-80
2023/06/14 11:38:43;;;;;;;3.67;3.20;;;;;;;;;;5025699;28;20097;-80
2023/06/14 11:41:10;;;;;;;6.20;3.00;;;;;;;;;;5028125;28;20049;-81
2023/06/14 11:43:37;;;;;;;14.32;3.80;;;;;;;;;;5017212;28;20050;-80
2023/06/14 11:46:03;;;;;;;7.97;3.30;;;;;;;;;;5028915;28;20098;-80
2023/06/14 11:48:39;;;;;;;5.80;3.15;;;;;;;;;;5028347;28;20045;-80
2023/06/14 11:51:05;;;;;;;8.68;3.65;;;;;;;;;;5015211;28;20366;-80
2023/06/14 11:53:34;;;;;;;7.30;3.63;;;;;;;;;;5027334;28;20053;-80
2023/06/14 11:56:00;;;;;;;7.20;3.58;;;;;;;;;;5028103;28;20053;-80
2023/06/14 11:58:27;;;;;;;20.00;4.38;;;;;;;;;;5015803;28;20034;-80
2023/06/14 12:00:55;;;;;;;6.57;3.40;;;;;;;;;;5028052;28;20455;-82
2023/06/14 12:03:30;;;;;;;17.60;4.47;;;;;;;;;;5015303;28;20093;-81
2023/06/14 12:06:05;;;;;;;6.25;3.50;;;;;;;;;;5025825;28;20133;-81
2023/06/14 12:08:41;;;;;;;8.00;3.88;;;;;;;;;;5026166;28;20081;-82
2023/06/14 12:11:16;;;;;;;26.58;5.00;;;;;;;;;;5014599;28;20061;-81
2023/06/14 12:13:43;;;;;;;7.85;3.55;;;;;;;;;;5026189;28;20050;-81
2023/06/14 12:16:09;;;;;;;6.53;3.60;;;;;;;;;;5022755;28;20046;-81
2023/06/14 12:18:36;;;;;;;7.95;3.90;;;;;;;;;;5022660;28;20551;-81
2023/06/14 12:21:06;;;;;;;5.57;3.40;;;;;;;;;;5026325;28;20436;-81
2023/06/14 12:23:45;;;;;;;5.13;3.38;;;;;;;;;;5014995;28;20038;-81
2023/06/14 12:26:18;;;;;;;7.80;3.83;;;;;;;;;;5020299;28;20057;-80
2023/06/14 12:28:48;;;;;;;5.82;4.07;;;;;;;;;;5006687;28;20042;-81
2023/06/14 12:31:15;;;;;;;10.43;4.05;;;;;;;;;;5009794;28;20037;-81
2023/06/14 12:33:42;;;;;;;6.25;3.50;;;;;;;;;;5009679;28;20057;-81
2023/06/14 12:36:08;;;;;;;6.85;3.45;;;;;;;;;;5025820;28;20715;-80
2023/06/14 12:38:35;;;;;;;7.30;4.38;;;;;;;;;;5025860;28;20419;-79
2023/06/14 12:41:01;;;;;;;6.20;3.92;;;;;;;;;;5025325;28;20050;-81
2023/06/14 12:43:28;;;;;;;7.10;3.33;;;;;;;;;;5009880;28;20057;-81
2023/06/14 12:45:54;;;;;;;7.32;3.30;;;;;;;;;;5023708;28;20531;-81
2023/06/14 12:48:20;;;;;;;7.07;3.42;;;;;;;;;;5022378;28;20049;-86
2023/06/14 12:50:46;;;;;;;6.55;3.60;;;;;;;;;;5019271;28;20042;-83
2023/06/14 12:53:12;;;;;;;5.68;3.15;;;;;;;;;;5010762;28;20038;-81
2023/06/14 12:55:38;;;;;;;5.40;3.92;;;;;;;;;;5022093;28;20049;-81
2023/06/14 12:58:05;;;;;;;9.52;3.75;;;;;;;;;;5019605;28;20050;-80
2023/06/14 13:00:31;;;;;;;5.88;3.20;;;;;;;;;;5013980;28;20050;-79
2023/06/14 13:02:57;;;;;;;4.95;3.40;;;;;;;;;;5011777;28;20045;-79
2023/06/14 13:05:23;;;;;;;8.60;3.97;;;;;;;;;;5016586;28;20408;-79
2023/06/14 13:07:50;;;;;;;5.60;3.50;;;;;;;;;;5030681;28;20053;-79
2023/06/14 13:10:16;;;;;;;5.47;3.70;;;;;;;;;;5015356;28;20128;-79
2023/06/14 13:12:43;;;;;;;6.57;3.60;;;;;;;;;;5032401;28;20046;-78
2023/06/14 13:15:09;;;;;;;6.63;3.42;;;;;;;;;;5027640;28;20042;-79
2023/06/14 13:17:38;;;;;;;7.90;3.67;;;;;;;;;;5014813;28;20050;-79
2023/06/14 13:20:08;;;;;;;6.50;3.50;;;;;;;;;;5015002;28;20061;-79
2023/06/14 13:22:34;;;;;;;8.02;3.80;;;;;;;;;;5013781;28;20050;-78
2023/06/14 13:25:01;;;;;;;6.53;3.97;;;;;;;;;;5014927;28;20046;-78
2023/06/14 13:27:27;;;;;;;7.15;3.67;;;;;;;;;;5014518;28;20041;-79
2023/06/14 13:29:53;;;;;;;37.10;5.18;;;;;;;;;;5014287;28;20069;-79
2023/06/14 13:32:21;;;;;;;7.60;4.18;;;;;;;;;;5014210;28;20080;-79
2023/06/14 13:34:47;;;;;;;6.63;3.40;;;;;;;;;;5015132;28;20045;-79
2023/06/14 13:37:13;;;;;;;8.18;3.42;;;;;;;;;;5014834;28;20057;-79
2023/06/14 13:39:39;;;;;;;9.98;3.60;;;;;;;;;;5014150;28;20052;-79
2023/06/14 13:42:06;;;;;;;7.95;3.50;;;;;;;;;;5013936;28;20518;-79
2023/06/14 13:44:32;;;;;;;11.18;3.85;;;;;;;;;;5012989;28;20045;-78
2023/06/14 13:46:58;;;;;;;8.45;3.65;;;;;;;;;;5012519;28;20077;-79
2023/06/14 13:49:24;;;;;;;4.70;3.30;;;;;;;;;;5015692;28;20119;-78
2023/06/14 13:51:50;;;;;;;8.70;3.80;;;;;;;;;;5013017;28;20050;-79
2023/06/14 13:54:20;;;;;;;9.63;4.03;;;;;;;;;;5014156;28;20389;-78
2023/06/14 13:56:46;;;;;;;5.60;3.45;;;;;;;;;;5021955;28;20052;-78
2023/06/14 13:59:12;;;;;;;6.97;3.45;;;;;;;;;;5025160;28;20080;-79
2023/06/14 14:01:38;;;;;;;7.80;3.58;;;;;;;;;;5020450;28;20038;-78
2023/06/14 14:04:05;;;;;;;8.02;4.22;;;;;;;;;;5011670;28;20434;-79
2023/06/14 14:06:31;;;;;;;6.55;3.58;;;;;;;;;;5016774;28;20396;-80
2023/06/14 14:08:58;;;;;;;9.93;3.53;;;;;;;;;;5017409;28;20049;-79
2023/06/14 14:11:24;;;;;;;9.10;4.00;;;;;;;;;;5018055;28;20046;-78
2023/06/14 14:13:50;;;;;;;5.65;3.40;;;;;;;;;;5018015;28;20101;-79
2023/06/14 14:16:16;;;;;;;9.77;3.63;;;;;;;;;;5020906;28;20038;-80
2023/06/14 14:18:42;;;;;;;7.05;3.60;;;;;;;;;;5029354;28;20062;-80
2023/06/14 14:21:09;;;;;;;6.07;3.70;;;;;;;;;;5009093;28;20084;-80
2023/06/14 14:23:35;;;;;;;4.43;3.35;;;;;;;;;;5021130;28;20575;-81
2023/06/14 14:26:03;;;;;;;6.25;3.22;;;;;;;;;;5020872;28;20055;-80
2023/06/14 14:28:30;;;;;;;6.45;3.67;;;;;;;;;;5022975;28;20053;-79
2023/06/14 14:30:56;;;;;;;5.38;3.45;;;;;;;;;;5019442;28;20492;-80
2023/06/14 14:33:22;;;;;;;5.68;3.70;;;;;;;;;;5027724;28;20046;-80
2023/06/14 14:35:48;;;;;;;6.05;3.50;;;;;;;;;;5019810;28;20098;-79
2023/06/14 14:38:18;;;;;;;6.63;3.55;;;;;;;;;;5020937;28;20050;-79
2023/06/14 14:40:44;;;;;;;6.65;3.53;;;;;;;;;;5008312;28;20045;-79
2023/06/14 14:43:11;;;;;;;7.88;3.53;;;;;;;;;;5020937;28;20053;-79